Piuma, Brazil
Current Conditions -  °F | °C
As of 10:00 AM on Friday 28 Nov 2014 (Local Time) from SBVT Reporting Station
Few Clouds Few Clouds  
Wind Chill: 79°   Ceiling: Unl
Heat Index: 81°   Visibility: 6mi
Dew Point: 70°   Wind: 5mph
Humidity: 74%   Direction: 270°W
Pressure: 29.94"   Gusts: NA
Location:  20.84°S, 40.72°W
Report Text: SBVT 281200Z 27004KT 9999 FEW019 26/21 Q1014
Loading
Personal Weather Stations






























Interactive Weather Map New forecast layout! Learn more

10-Day Weather Forecast

Advertisements
Track Severe Weather on mobile